createdAt,value
2022-12-03T00:01:59.524Z,70.09
2022-12-03T00:04:26.074Z,69.23
2022-12-03T00:06:52.780Z,68.95
2022-12-03T00:09:19.604Z,70.42
2022-12-03T00:11:46.333Z,69.64
2022-12-03T00:14:13.166Z,69.73
2022-12-03T00:16:39.861Z,68.87
2022-12-03T00:19:07.826Z,69.63
2022-12-03T00:21:34.878Z,69.37
2022-12-03T00:24:01.552Z,69.44
2022-12-03T00:26:28.112Z,70.84
2022-12-03T00:28:54.963Z,69.54
2022-12-03T00:31:23.665Z,70.08
2022-12-03T00:33:52.286Z,69.98
2022-12-03T00:36:19.666Z,70.78
2022-12-03T00:38:46.298Z,70.23
2022-12-03T00:41:13.171Z,70.74
2022-12-03T00:43:39.672Z,70.07
2022-12-03T00:46:06.322Z,70.66
2022-12-03T00:48:32.940Z,71.08
2022-12-03T00:50:59.551Z,71.26
2022-12-03T00:53:26.231Z,71.00
2022-12-03T00:55:52.767Z,71.88
2022-12-03T00:58:19.427Z,71.45
2022-12-03T01:00:45.947Z,71.30
2022-12-03T01:03:12.530Z,70.86
2022-12-03T01:05:39.088Z,70.87
2022-12-03T01:08:05.964Z,71.23
2022-12-03T01:10:32.628Z,70.77
2022-12-03T01:12:59.202Z,71.38
2022-12-03T01:15:25.818Z,71.90
2022-12-03T01:17:54.341Z,71.02
2022-12-03T01:20:21.419Z,71.28
2022-12-03T01:22:48.035Z,71.46
2022-12-03T01:25:14.745Z,71.49
2022-12-03T01:27:41.566Z,71.75
2022-12-03T01:30:08.594Z,72.67
2022-12-03T01:32:35.131Z,72.49
2022-12-03T01:35:01.752Z,72.22
2022-12-03T01:37:28.430Z,73.02
2022-12-03T01:39:55.333Z,71.94
2022-12-03T01:42:25.933Z,72.06
2022-12-03T01:44:55.009Z,71.97
2022-12-03T01:47:27.458Z,73.49
2022-12-03T01:49:56.673Z,72.99
2022-12-03T01:52:28.929Z,72.23
2022-12-03T01:54:58.494Z,72.42
2022-12-03T01:57:28.550Z,73.26
2022-12-03T01:59:57.661Z,73.14
2022-12-03T02:02:28.261Z,75.99
2022-12-03T02:04:55.887Z,72.74
2022-12-03T02:07:34.773Z,73.17
2022-12-03T02:10:03.752Z,73.78
2022-12-03T02:12:33.052Z,73.92
2022-12-03T02:15:00.752Z,72.80
2022-12-03T02:17:28.338Z,73.28
2022-12-03T02:19:56.277Z,73.78
2022-12-03T02:22:55.146Z,73.74
2022-12-03T02:25:25.995Z,73.78
2022-12-03T02:27:54.965Z,73.97
2022-12-03T02:30:24.598Z,73.46
2022-12-03T02:32:52.723Z,73.22
2022-12-03T02:35:22.382Z,73.51
2022-12-03T02:37:52.943Z,74.06
2022-12-03T02:40:22.843Z,73.23
2022-12-03T02:42:53.588Z,73.67
2022-12-03T02:45:20.010Z,74.56
2022-12-03T02:48:11.594Z,75.53
2022-12-03T02:50:42.401Z,74.04
2022-12-03T02:53:14.322Z,74.35
2022-12-03T02:55:41.612Z,74.34
2022-12-03T02:58:08.909Z,74.22
2022-12-03T03:00:36.549Z,74.41
2022-12-03T03:03:04.780Z,74.57
2022-12-03T03:05:32.951Z,74.05
2022-12-03T03:08:00.701Z,74.26
2022-12-03T03:10:29.153Z,74.22
2022-12-03T03:12:56.400Z,74.24
2022-12-03T03:15:24.338Z,74.45
2022-12-03T03:17:51.174Z,74.31
2022-12-03T03:20:19.032Z,75.03
2022-12-03T03:22:45.576Z,74.96
2022-12-03T03:25:20.616Z,74.46
2022-12-03T03:27:47.291Z,76.70
2022-12-03T03:30:14.481Z,75.28
2022-12-03T03:32:43.114Z,74.31
2022-12-03T03:35:11.916Z,74.98
2022-12-03T03:37:39.258Z,74.74
2022-12-03T03:40:07.116Z,75.16
2022-12-03T03:42:33.975Z,75.01
2022-12-03T03:45:00.915Z,76.38
2022-12-03T03:47:27.521Z,76.82
2022-12-03T03:49:54.328Z,75.64
2022-12-03T03:52:21.198Z,76.12
2022-12-03T03:54:48.131Z,75.77
2022-12-03T03:57:14.684Z,75.84
2022-12-03T03:59:41.728Z,75.42
2022-12-03T04:02:18.892Z,75.19
2022-12-03T04:04:45.792Z,75.40
2022-12-03T04:07:12.521Z,74.94
2022-12-03T04:09:38.984Z,76.14
2022-12-03T04:12:24.592Z,75.40
2022-12-03T04:14:51.519Z,75.08
2022-12-03T04:17:18.429Z,74.86
2022-12-03T04:19:44.955Z,75.54
2022-12-03T04:22:29.699Z,75.42
2022-12-03T04:25:16.184Z,75.50
2022-12-03T04:28:01.349Z,75.38
2022-12-03T04:30:27.948Z,75.10
2022-12-03T04:33:13.032Z,74.86
2022-12-03T04:35:42.493Z,75.46
2022-12-03T04:38:10.083Z,74.95
2022-12-03T04:40:55.914Z,75.39
2022-12-03T04:43:22.595Z,74.91
2022-12-03T04:45:49.612Z,75.50
2022-12-03T04:48:16.165Z,74.98
2022-12-03T04:50:43.256Z,75.02
2022-12-03T04:53:09.860Z,75.31
2022-12-03T04:55:36.413Z,75.02
2022-12-03T04:58:02.944Z,75.95
2022-12-03T05:00:32.245Z,76.49
2022-12-03T05:02:58.911Z,75.60
2022-12-03T05:05:25.608Z,75.33
2022-12-03T05:07:52.155Z,75.56
2022-12-03T05:10:18.895Z,75.08
2022-12-03T05:12:45.380Z,75.38
2022-12-03T05:15:11.974Z,75.39
2022-12-03T05:17:38.453Z,75.21
2022-12-03T05:20:24.091Z,75.47
2022-12-03T05:22:50.586Z,75.62
2022-12-03T05:25:17.229Z,76.20
2022-12-03T05:27:43.676Z,75.47
2022-12-03T05:30:10.490Z,75.59
2022-12-03T05:32:36.994Z,75.80
2022-12-03T05:35:03.760Z,75.62
2022-12-03T05:37:30.323Z,76.06
2022-12-03T05:39:56.836Z,76.17
2022-12-03T05:42:41.894Z,75.93
2022-12-03T05:45:08.880Z,75.91
2022-12-03T05:47:35.446Z,76.11
2022-12-03T05:50:01.963Z,76.37
2022-12-03T05:52:28.762Z,75.70
2022-12-03T05:54:55.635Z,75.93
2022-12-03T05:57:22.312Z,76.73
2022-12-03T05:59:49.185Z,76.07
2022-12-03T06:02:15.867Z,76.54
2022-12-03T06:04:42.593Z,76.51
2022-12-03T06:07:13.771Z,75.97
2022-12-03T06:09:40.815Z,76.29
2022-12-03T06:12:08.910Z,76.54
2022-12-03T06:14:35.908Z,75.90
2022-12-03T06:17:02.799Z,75.75
2022-12-03T06:19:29.361Z,76.02
2022-12-03T06:21:56.025Z,76.53
2022-12-03T06:24:22.534Z,76.30
2022-12-03T06:26:49.135Z,75.85
2022-12-03T06:29:15.721Z,76.22
2022-12-03T06:31:42.256Z,75.92
2022-12-03T06:34:08.913Z,75.94
2022-12-03T06:36:35.415Z,76.18
2022-12-03T06:39:02.299Z,75.94
2022-12-03T06:41:28.815Z,76.10
2022-12-03T06:43:55.263Z,75.65
2022-12-03T06:46:21.773Z,75.89
2022-12-03T06:48:48.415Z,76.17
2022-12-03T06:51:14.963Z,75.84
2022-12-03T06:53:41.429Z,75.52
2022-12-03T06:56:08.058Z,76.00
2022-12-03T06:58:34.818Z,76.03
2022-12-03T07:01:01.405Z,76.10
2022-12-03T07:03:28.009Z,75.46
2022-12-03T07:05:54.519Z,76.82
2022-12-03T07:08:20.992Z,75.69
2022-12-03T07:10:47.578Z,75.45
2022-12-03T07:13:14.063Z,75.71
2022-12-03T07:15:40.862Z,75.60
2022-12-03T07:18:07.466Z,75.44
2022-12-03T07:20:33.953Z,75.54
2022-12-03T07:23:00.438Z,75.08
2022-12-03T07:25:27.173Z,75.01
2022-12-03T07:27:53.621Z,75.31
2022-12-03T07:30:20.377Z,75.92
2022-12-03T07:32:46.900Z,75.78
2022-12-03T07:35:13.482Z,75.31
2022-12-03T07:37:40.139Z,75.97
2022-12-03T07:40:07.365Z,76.42
2022-12-03T07:42:33.942Z,76.91
2022-12-03T07:45:00.768Z,77.39
2022-12-03T07:47:27.342Z,77.58
2022-12-03T07:49:53.889Z,78.40
2022-12-03T07:52:20.564Z,78.52
2022-12-03T07:54:47.244Z,79.26
2022-12-03T07:57:13.818Z,79.87
2022-12-03T07:59:40.329Z,79.52
2022-12-03T08:02:06.929Z,79.38
2022-12-03T08:04:33.563Z,79.17
2022-12-03T08:07:00.309Z,79.62
2022-12-03T08:09:26.981Z,80.68
2022-12-03T08:11:53.956Z,80.42
2022-12-03T08:14:20.925Z,80.44
2022-12-03T08:16:48.095Z,80.68
2022-12-03T08:19:16.505Z,80.60
2022-12-03T08:21:43.765Z,81.50
2022-12-03T08:24:21.081Z,81.28
2022-12-03T08:26:49.665Z,81.02
2022-12-03T08:29:18.796Z,80.54
2022-12-03T08:31:55.180Z,80.42
2022-12-03T08:34:26.767Z,81.32
2022-12-03T08:37:01.575Z,80.82
2022-12-03T08:39:40.594Z,80.23
2022-12-03T08:42:28.984Z,80.18
2022-12-03T08:44:56.168Z,81.91
2022-12-03T08:47:24.385Z,80.59
2022-12-03T08:50:03.385Z,81.88
2022-12-03T08:52:34.751Z,80.06
2022-12-03T08:55:29.427Z,79.88
2022-12-03T08:57:55.975Z,79.26
2022-12-03T09:00:24.559Z,80.64
2022-12-03T09:02:54.290Z,81.09
2022-12-03T09:05:23.584Z,79.78
2022-12-03T09:07:50.283Z,78.76
2022-12-03T09:10:20.681Z,80.29
2022-12-03T09:12:47.613Z,78.98
2022-12-03T09:15:14.224Z,75.06
2022-12-03T09:17:40.884Z,78.84
2022-12-03T09:20:09.224Z,79.03
2022-12-03T09:22:35.957Z,76.95
2022-12-03T09:25:02.719Z,77.25
2022-12-03T09:27:29.538Z,78.93
2022-12-03T09:29:57.744Z,78.19
2022-12-03T09:32:24.607Z,75.11
2022-12-03T09:34:51.794Z,79.18
2022-12-03T09:37:18.730Z,78.38
2022-12-03T09:39:45.314Z,77.11
2022-12-03T09:42:12.311Z,76.56
2022-12-03T09:44:39.244Z,75.21
2022-12-03T09:47:06.993Z,78.53
2022-12-03T09:49:37.646Z,73.40
2022-12-03T09:52:06.376Z,77.49
2022-12-03T09:54:36.475Z,76.51
2022-12-03T09:57:04.411Z,75.58
2022-12-03T09:59:33.455Z,76.39
2022-12-03T10:02:00.653Z,76.98
2022-12-03T10:04:28.581Z,75.75
2022-12-03T10:07:06.209Z,75.52
2022-12-03T10:09:35.145Z,76.19
2022-12-03T10:12:01.901Z,76.23
2022-12-03T10:14:28.995Z,74.88
2022-12-03T10:16:55.993Z,75.24
2022-12-03T10:19:26.107Z,74.04
2022-12-03T10:21:52.915Z,74.40
2022-12-03T10:24:24.163Z,74.35
2022-12-03T10:26:52.964Z,75.76
2022-12-03T10:29:29.913Z,74.52
2022-12-03T10:32:10.517Z,73.54
2022-12-03T10:34:39.703Z,72.72
2022-12-03T10:37:14.302Z,75.98
2022-12-03T10:40:09.364Z,74.10
2022-12-03T10:42:39.829Z,73.93
2022-12-03T10:45:19.339Z,75.27
2022-12-03T10:48:06.402Z,73.39
2022-12-03T10:50:34.877Z,74.56
2022-12-03T10:53:02.104Z,74.75
2022-12-03T10:55:34.309Z,73.18
2022-12-03T10:58:02.307Z,73.47
2022-12-03T11:00:29.177Z,73.48
2022-12-03T11:02:57.119Z,74.78
2022-12-03T11:05:27.567Z,74.02
2022-12-03T11:07:54.762Z,74.22
2022-12-03T11:10:21.913Z,74.44
2022-12-03T11:13:33.079Z,72.61
2022-12-03T11:16:05.307Z,73.75
2022-12-03T11:18:34.731Z,73.56
2022-12-03T11:21:02.522Z,73.61
2022-12-03T11:23:44.245Z,71.33
2022-12-03T11:26:18.404Z,73.36
2022-12-03T11:28:45.719Z,72.84
2022-12-03T11:31:42.023Z,71.83
2022-12-03T11:34:20.735Z,73.67
2022-12-03T11:37:12.069Z,71.25
2022-12-03T11:39:44.785Z,72.55
2022-12-03T11:42:29.869Z,72.36
2022-12-03T11:45:05.765Z,72.40
2022-12-03T11:47:41.825Z,73.18
2022-12-03T11:50:21.557Z,71.98
2022-12-03T11:52:54.521Z,72.86
2022-12-03T11:55:34.781Z,71.47
2022-12-03T11:58:22.530Z,71.90
2022-12-03T12:00:53.842Z,72.00
2022-12-03T12:03:52.901Z,71.75
2022-12-03T12:06:21.209Z,71.94
2022-12-03T12:09:00.078Z,71.91
2022-12-03T12:11:34.578Z,71.64
2022-12-03T12:14:19.265Z,71.25
2022-12-03T12:16:50.988Z,72.18
2022-12-03T12:19:33.879Z,70.41
2022-12-03T12:22:28.185Z,71.10
2022-12-03T12:25:04.038Z,72.00
2022-12-03T12:27:49.492Z,71.07
2022-12-03T12:30:19.179Z,71.78
2022-12-03T12:32:48.412Z,71.93
2022-12-03T12:35:26.496Z,71.43
2022-12-03T12:38:03.283Z,71.56
2022-12-03T12:40:34.883Z,70.58
2022-12-03T12:43:11.775Z,70.68
2022-12-03T12:45:43.569Z,71.15
2022-12-03T12:48:10.207Z,72.13
2022-12-03T12:50:38.573Z,71.61
2022-12-03T12:53:12.776Z,71.20
2022-12-03T12:55:40.128Z,70.71
2022-12-03T12:58:17.354Z,71.75
2022-12-03T13:00:50.980Z,71.74
2022-12-03T13:03:19.363Z,71.33
2022-12-03T13:05:49.267Z,70.66
2022-12-03T13:08:23.504Z,70.90
2022-12-03T13:10:52.597Z,70.00
2022-12-03T13:13:21.712Z,70.47
2022-12-03T13:15:50.639Z,70.73
2022-12-03T13:18:39.898Z,70.80
2022-12-03T13:21:32.874Z,70.64
2022-12-03T13:24:00.986Z,70.29
2022-12-03T13:26:39.421Z,69.84
2022-12-03T13:29:16.549Z,70.57
2022-12-03T13:31:51.184Z,70.38
2022-12-03T13:34:23.416Z,70.26
2022-12-03T13:36:57.633Z,71.21
2022-12-03T13:39:30.697Z,71.04
2022-12-03T13:42:21.977Z,71.58
2022-12-03T13:44:50.057Z,71.58
2022-12-03T13:47:22.752Z,71.69
2022-12-03T13:49:57.936Z,71.22
2022-12-03T13:52:29.064Z,71.91
2022-12-03T13:54:57.145Z,71.37
2022-12-03T13:57:23.953Z,71.79
2022-12-03T13:59:50.760Z,72.10
2022-12-03T14:02:17.998Z,71.92
2022-12-03T14:04:46.466Z,71.72
2022-12-03T14:07:13.142Z,72.57
2022-12-03T14:09:39.733Z,72.01
2022-12-03T14:12:25.339Z,71.92
2022-12-03T14:14:52.036Z,72.38
2022-12-03T14:17:18.562Z,72.19
2022-12-03T14:19:45.247Z,72.39
2022-12-03T14:22:12.025Z,72.29
2022-12-03T14:24:40.201Z,72.57
2022-12-03T14:27:06.820Z,72.39
2022-12-03T14:29:33.576Z,72.35
2022-12-03T14:32:00.155Z,71.68
2022-12-03T14:34:27.256Z,71.07
2022-12-03T14:36:53.784Z,71.65
2022-12-03T14:39:23.359Z,71.15
2022-12-03T14:42:08.515Z,71.76
2022-12-03T14:44:37.181Z,71.30
2022-12-03T14:47:03.811Z,72.04
2022-12-03T14:49:30.379Z,71.95
2022-12-03T14:51:56.925Z,71.49
2022-12-03T14:54:23.854Z,71.08
2022-12-03T14:56:50.515Z,69.25
2022-12-03T14:59:17.366Z,71.55
2022-12-03T15:01:43.960Z,70.37
2022-12-03T15:04:10.768Z,71.12
2022-12-03T15:06:37.280Z,71.24
2022-12-03T15:09:04.512Z,69.36
2022-12-03T15:11:31.260Z,70.80
2022-12-03T15:13:58.159Z,70.19
2022-12-03T15:16:25.067Z,71.14
2022-12-03T15:18:52.086Z,71.47
2022-12-03T15:21:18.610Z,71.34
2022-12-03T15:23:45.261Z,71.21
2022-12-03T15:26:11.762Z,71.07
2022-12-03T15:28:38.416Z,70.90
2022-12-03T15:31:05.186Z,71.17
2022-12-03T15:33:31.835Z,70.65
2022-12-03T15:35:58.429Z,71.08
2022-12-03T15:38:24.983Z,70.87
2022-12-03T15:40:51.584Z,71.11
2022-12-03T15:43:18.229Z,71.06
2022-12-03T15:45:45.012Z,71.47
2022-12-03T15:48:13.445Z,70.73
2022-12-03T15:50:40.593Z,71.18
2022-12-03T15:53:07.335Z,71.27
2022-12-03T15:55:33.842Z,71.27
2022-12-03T15:58:00.428Z,71.26
2022-12-03T16:00:26.936Z,71.07
2022-12-03T16:02:53.634Z,71.62
2022-12-03T16:05:20.253Z,71.18
2022-12-03T16:07:46.878Z,71.24
2022-12-03T16:10:13.722Z,71.42
2022-12-03T16:12:40.417Z,71.60
2022-12-03T16:15:07.281Z,71.31
2022-12-03T16:17:33.972Z,71.48
2022-12-03T16:20:00.672Z,71.45
2022-12-03T16:22:27.184Z,71.84
2022-12-03T16:24:53.791Z,71.55
2022-12-03T16:27:25.297Z,71.24
2022-12-03T16:29:52.660Z,71.24
2022-12-03T16:32:19.605Z,71.41
2022-12-03T16:34:46.263Z,71.66
2022-12-03T16:37:12.842Z,71.58
2022-12-03T16:39:39.491Z,71.77
2022-12-03T16:42:10.203Z,71.65
2022-12-03T16:44:58.928Z,71.84
2022-12-03T16:47:30.618Z,72.05
2022-12-03T16:50:00.495Z,71.93
2022-12-03T16:52:29.567Z,71.61
2022-12-03T16:54:56.506Z,71.54
2022-12-03T16:57:23.041Z,71.66
2022-12-03T16:59:49.888Z,71.67
2022-12-03T17:02:16.600Z,71.19
2022-12-03T17:04:43.227Z,71.51
2022-12-03T17:07:09.922Z,71.44
2022-12-03T17:09:36.486Z,71.51
2022-12-03T17:12:03.117Z,71.69
2022-12-03T17:14:33.289Z,71.96
2022-12-03T17:17:00.175Z,71.70
2022-12-03T17:19:26.756Z,71.51
2022-12-03T17:21:54.235Z,71.75
2022-12-03T17:24:21.428Z,71.85
2022-12-03T17:26:48.007Z,72.09
2022-12-03T17:29:14.641Z,71.50
2022-12-03T17:31:42.477Z,71.57
2022-12-03T17:34:09.528Z,71.85
2022-12-03T17:36:36.203Z,71.67
2022-12-03T17:39:02.906Z,71.81
2022-12-03T17:41:29.437Z,71.40
2022-12-03T17:43:56.072Z,72.12
2022-12-03T17:46:22.642Z,71.72
2022-12-03T17:48:49.302Z,71.64
2022-12-03T17:51:16.005Z,71.54
2022-12-03T17:53:42.644Z,71.27
2022-12-03T17:56:09.585Z,71.99
2022-12-03T17:58:36.072Z,71.86
2022-12-03T18:01:03.436Z,71.95
2022-12-03T18:03:30.849Z,71.93
2022-12-03T18:05:57.418Z,71.37
2022-12-03T18:08:24.202Z,71.80
2022-12-03T18:10:50.889Z,71.55
2022-12-03T18:13:17.563Z,70.83
2022-12-03T18:15:44.110Z,71.71
2022-12-03T18:18:10.945Z,71.73
2022-12-03T18:20:38.054Z,71.76
2022-12-03T18:23:04.991Z,71.89
2022-12-03T18:25:31.714Z,71.30
2022-12-03T18:27:58.460Z,71.42
2022-12-03T18:30:25.233Z,71.59
2022-12-03T18:32:51.909Z,71.30
2022-12-03T18:35:18.540Z,71.60
2022-12-03T18:37:45.155Z,71.41
2022-12-03T18:40:22.478Z,70.92
2022-12-03T18:42:49.211Z,71.48
2022-12-03T18:45:16.426Z,71.60
2022-12-03T18:47:43.715Z,70.97
2022-12-03T18:52:52.681Z,71.24
2022-12-03T18:55:21.822Z,71.62
2022-12-03T18:57:48.403Z,71.69
2022-12-03T19:00:15.376Z,71.67
2022-12-03T19:05:29.090Z,71.70
2022-12-03T19:07:56.616Z,71.61
2022-12-03T19:10:23.928Z,71.26
2022-12-03T19:12:50.580Z,71.75
2022-12-03T19:15:17.569Z,71.60
2022-12-03T19:17:49.474Z,71.25
2022-12-03T19:20:16.146Z,71.08
2022-12-03T19:22:42.724Z,70.45
2022-12-03T19:25:09.506Z,71.45
2022-12-03T19:27:36.215Z,71.42
2022-12-03T19:30:03.095Z,71.07
2022-12-03T19:32:29.631Z,70.98
2022-12-03T19:34:57.252Z,71.07
2022-12-03T19:37:23.801Z,70.66
2022-12-03T19:39:53.509Z,71.27
2022-12-03T19:42:20.529Z,70.50
2022-12-03T19:44:47.108Z,71.11
2022-12-03T19:47:13.857Z,71.12
2022-12-03T19:49:40.449Z,71.45
2022-12-03T19:52:06.992Z,70.92
2022-12-03T19:54:33.696Z,70.96
2022-12-03T19:57:00.486Z,70.03
2022-12-03T19:59:27.134Z,71.22
2022-12-03T20:01:53.726Z,70.82
2022-12-03T20:04:20.481Z,70.62
2022-12-03T20:06:47.732Z,70.59
2022-12-03T20:09:17.903Z,70.70
2022-12-03T20:11:46.070Z,71.13
2022-12-03T20:14:15.614Z,69.08
2022-12-03T20:16:42.883Z,70.13
2022-12-03T20:19:12.473Z,70.29
2022-12-03T20:21:40.248Z,70.39
2022-12-03T20:24:08.363Z,70.41
2022-12-03T20:26:34.876Z,69.86
2022-12-03T20:29:01.800Z,70.75
2022-12-03T20:31:31.237Z,70.61
2022-12-03T20:34:02.928Z,70.69
2022-12-03T20:36:31.052Z,70.08
2022-12-03T20:39:00.286Z,70.24
2022-12-03T20:41:26.874Z,70.55
2022-12-03T20:43:54.466Z,70.25
2022-12-03T20:46:25.878Z,70.56
2022-12-03T20:48:54.277Z,70.61
2022-12-03T20:51:23.537Z,70.28
2022-12-03T20:53:50.343Z,70.21
2022-12-03T20:56:20.301Z,70.10
2022-12-03T20:58:49.005Z,70.40
2022-12-03T21:01:22.263Z,70.31
2022-12-03T21:03:49.647Z,70.12
2022-12-03T21:06:17.298Z,69.78
2022-12-03T21:08:44.858Z,69.51
2022-12-03T21:11:16.041Z,69.40
2022-12-03T21:13:45.427Z,68.68
2022-12-03T21:16:15.849Z,68.54
2022-12-03T21:18:43.424Z,68.21
2022-12-03T21:21:12.204Z,67.72
2022-12-03T21:23:38.911Z,68.40
2022-12-03T21:26:08.434Z,68.61
2022-12-03T21:28:35.773Z,67.91
2022-12-03T21:31:06.173Z,67.59
2022-12-03T21:33:33.518Z,67.45
2022-12-03T21:36:01.116Z,67.18
2022-12-03T21:38:30.265Z,67.61
2022-12-03T21:40:57.524Z,66.72
2022-12-03T21:43:25.259Z,67.48
2022-12-03T21:45:53.984Z,67.19
2022-12-03T21:48:21.062Z,69.17
2022-12-03T21:51:00.650Z,68.73
2022-12-03T21:53:28.180Z,67.24
2022-12-03T21:55:54.858Z,67.29
2022-12-03T21:58:21.455Z,68.09
2022-12-03T22:00:48.065Z,67.44
2022-12-03T22:03:14.779Z,67.26
2022-12-03T22:05:41.367Z,66.78
2022-12-03T22:08:08.109Z,67.41
2022-12-03T22:10:35.434Z,66.54
2022-12-03T22:13:02.264Z,66.57
2022-12-03T22:15:28.808Z,66.23
2022-12-03T22:17:55.345Z,66.98
2022-12-03T22:20:22.261Z,66.00
2022-12-03T22:22:48.833Z,66.15
2022-12-03T22:25:15.864Z,67.08
2022-12-03T22:27:42.599Z,66.02
2022-12-03T22:30:09.534Z,66.35
2022-12-03T22:32:36.114Z,65.03
2022-12-03T22:35:02.851Z,65.71
2022-12-03T22:37:32.390Z,64.87
2022-12-03T22:39:59.106Z,66.67
2022-12-03T22:42:25.689Z,65.92
2022-12-03T22:44:52.160Z,65.90
2022-12-03T22:47:18.707Z,68.85
2022-12-03T22:49:45.212Z,65.91
2022-12-03T22:52:11.731Z,66.35
2022-12-03T22:54:38.317Z,66.47
2022-12-03T22:57:04.767Z,65.86
2022-12-03T22:59:31.406Z,67.67
2022-12-03T23:01:58.064Z,68.87
2022-12-03T23:04:24.674Z,65.64
2022-12-03T23:06:51.103Z,65.80
2022-12-03T23:09:17.880Z,66.81
2022-12-03T23:11:45.597Z,65.70
2022-12-03T23:14:13.343Z,67.28
2022-12-03T23:16:40.658Z,67.03
2022-12-03T23:19:07.148Z,66.57
2022-12-03T23:21:34.740Z,66.53
2022-12-03T23:24:02.873Z,66.23
2022-12-03T23:26:29.673Z,66.30
2022-12-03T23:28:56.721Z,67.20
2022-12-03T23:31:29.874Z,68.15
2022-12-03T23:33:57.568Z,66.77
2022-12-03T23:36:26.206Z,66.93
2022-12-03T23:38:53.604Z,68.42
2022-12-03T23:41:22.584Z,67.14
2022-12-03T23:43:49.586Z,69.41
2022-12-03T23:46:20.154Z,67.60
2022-12-03T23:48:46.863Z,66.75
2022-12-03T23:51:20.287Z,67.17
2022-12-03T23:53:47.555Z,66.98
2022-12-03T23:56:17.483Z,68.36
2022-12-03T23:58:44.621Z,67.16
